Time;durP1;ratioP1;P1;durP2;ratioP2;P2;SDS_P1;SDS_P2;PMS_P1;PMS_P2;Temp;Humidity;BMP_temperature;BMP_pressure;BME280_temperature;BME280_humidity;BME280_pressure;Samples;Min_cycle;Max_cycle;Signal;HPM_P1;HPM_P2
2022/06/14 00:01:56;;;;;;;3.78;2.15;;;;;;;;;;5078232;28;20081;-72
2022/06/14 00:04:22;;;;;;;3.13;2.03;;;;;;;;;;5091470;28;20487;-72
2022/06/14 00:06:49;;;;;;;3.53;2.38;;;;;;;;;;5091189;28;20131;-72
2022/06/14 00:09:15;;;;;;;3.35;2.00;;;;;;;;;;5091319;28;20565;-72
2022/06/14 00:11:42;;;;;;;3.00;2.00;;;;;;;;;;5091473;28;20043;-72
2022/06/14 00:14:09;;;;;;;2.83;2.60;;;;;;;;;;5090072;28;20043;-72
2022/06/14 00:16:36;;;;;;;3.15;2.58;;;;;;;;;;5091218;28;20091;-72
2022/06/14 00:19:07;;;;;;;3.75;2.20;;;;;;;;;;5091462;28;20048;-72
2022/06/14 00:21:34;;;;;;;4.28;2.67;;;;;;;;;;5091916;28;20496;-72
2022/06/14 00:24:01;;;;;;;2.90;2.60;;;;;;;;;;5095191;28;20056;-72
2022/06/14 00:26:28;;;;;;;3.38;2.35;;;;;;;;;;5094882;28;20783;-72
2022/06/14 00:28:54;;;;;;;4.13;2.53;;;;;;;;;;5094814;28;20515;-72
2022/06/14 00:31:22;;;;;;;4.43;2.25;;;;;;;;;;5094842;28;20079;-72
2022/06/14 00:33:49;;;;;;;3.17;2.15;;;;;;;;;;5095106;28;20506;-72
2022/06/14 00:36:28;;;;;;;5.15;2.60;;;;;;;;;;5094660;28;20099;-72
2022/06/14 00:38:55;;;;;;;5.63;2.33;;;;;;;;;;5095162;28;20048;-72
2022/06/14 00:41:34;;;;;;;3.47;1.73;;;;;;;;;;5093664;28;20468;-72
2022/06/14 00:44:02;;;;;;;4.07;2.20;;;;;;;;;;5094757;28;20103;-72
2022/06/14 00:46:34;;;;;;;4.50;1.80;;;;;;;;;;5094379;28;20499;-72
2022/06/14 00:49:06;;;;;;;3.75;2.10;;;;;;;;;;5094487;28;20091;-72
2022/06/14 00:51:36;;;;;;;3.22;2.03;;;;;;;;;;5094298;28;20075;-72
2022/06/14 00:54:02;;;;;;;3.47;1.92;;;;;;;;;;5094753;28;20403;-72
2022/06/14 00:56:33;;;;;;;5.00;2.00;;;;;;;;;;5094479;28;20083;-72
2022/06/14 00:59:11;;;;;;;4.13;2.35;;;;;;;;;;5094323;28;20507;-72
2022/06/14 01:01:39;;;;;;;3.20;2.35;;;;;;;;;;5094178;28;20105;-72
2022/06/14 01:04:09;;;;;;;3.05;1.92;;;;;;;;;;5094804;28;20052;-72
2022/06/14 01:06:54;;;;;;;3.13;1.90;;;;;;;;;;5094262;28;20149;-72
2022/06/14 01:09:26;;;;;;;4.55;2.22;;;;;;;;;;5094192;28;20076;-72
2022/06/14 01:11:55;;;;;;;3.83;2.08;;;;;;;;;;5093888;28;20071;-72
2022/06/14 01:14:24;;;;;;;3.15;2.20;;;;;;;;;;5094214;28;20083;-72
2022/06/14 01:16:51;;;;;;;1.88;1.77;;;;;;;;;;5094122;28;20090;-72
2022/06/14 01:19:23;;;;;;;4.75;2.10;;;;;;;;;;5094371;28;20131;-72
2022/06/14 01:21:53;;;;;;;2.97;1.95;;;;;;;;;;5093860;28;20086;-72
2022/06/14 01:24:21;;;;;;;2.35;1.80;;;;;;;;;;5094214;28;20075;-72
2022/06/14 01:26:48;;;;;;;3.08;2.38;;;;;;;;;;5093867;28;20097;-72
2022/06/14 01:29:15;;;;;;;5.53;2.28;;;;;;;;;;5086247;28;20048;-72
2022/06/14 01:31:42;;;;;;;5.47;2.30;;;;;;;;;;5093910;28;20064;-71
2022/06/14 01:34:08;;;;;;;4.30;2.00;;;;;;;;;;5093463;28;20760;-72
2022/06/14 01:36:36;;;;;;;3.13;2.25;;;;;;;;;;5093641;28;20043;-72
2022/06/14 01:39:05;;;;;;;7.07;2.40;;;;;;;;;;5093465;28;20064;-71
2022/06/14 01:41:54;;;;;;;3.88;2.42;;;;;;;;;;5092423;28;20135;-71
2022/06/14 01:44:20;;;;;;;3.20;2.20;;;;;;;;;;5092487;28;20102;-72
2022/06/14 01:46:56;;;;;;;2.60;2.25;;;;;;;;;;5093579;28;20097;-72
2022/06/14 01:52:20;;;;;;;3.53;2.30;;;;;;;;;;5093585;28;20075;-72
2022/06/14 01:54:57;;;;;;;2.50;2.30;;;;;;;;;;5093107;28;20472;-71
2022/06/14 01:57:33;;;;;;;3.47;2.33;;;;;;;;;;5093478;28;20082;-72
2022/06/14 02:00:12;;;;;;;3.60;2.28;;;;;;;;;;5093418;28;20078;-71
2022/06/14 02:02:45;;;;;;;3.47;2.33;;;;;;;;;;5093315;28;20101;-71
2022/06/14 02:05:12;;;;;;;2.40;1.73;;;;;;;;;;5093271;28;20054;-71
2022/06/14 02:08:10;;;;;;;4.10;2.20;;;;;;;;;;5093196;28;20083;-72
2022/06/14 02:10:46;;;;;;;2.58;2.00;;;;;;;;;;5063374;28;20056;-72
2022/06/14 02:13:13;;;;;;;2.28;2.10;;;;;;;;;;5093375;28;20075;-72
2022/06/14 02:15:49;;;;;;;4.43;2.90;;;;;;;;;;5093013;28;20079;-72
2022/06/14 02:18:20;;;;;;;3.20;2.25;;;;;;;;;;5091569;28;20106;-71
2022/06/14 02:21:06;;;;;;;3.38;1.90;;;;;;;;;;5091128;28;20515;-71
2022/06/14 02:23:40;;;;;;;4.10;2.27;;;;;;;;;;5092595;28;20083;-71
2022/06/14 02:26:22;;;;;;;4.25;1.92;;;;;;;;;;5092785;28;20080;-72
2022/06/14 02:28:52;;;;;;;2.65;2.03;;;;;;;;;;5092525;28;20044;-72
2022/06/14 02:31:26;;;;;;;4.30;2.00;;;;;;;;;;5092542;28;20099;-72
2022/06/14 02:33:56;;;;;;;4.05;2.05;;;;;;;;;;5092802;28;20040;-72
2022/06/14 02:36:28;;;;;;;3.47;2.00;;;;;;;;;;5093022;28;20044;-71
2022/06/14 02:39:14;;;;;;;3.00;2.15;;;;;;;;;;5092409;28;20097;-71
2022/06/14 02:41:52;;;;;;;2.92;2.00;;;;;;;;;;5092646;28;20074;-72
2022/06/14 02:44:38;;;;;;;2.65;2.13;;;;;;;;;;5092045;28;20468;-71
2022/06/14 02:47:13;;;;;;;2.75;1.85;;;;;;;;;;5092409;28;20121;-71
2022/06/14 02:49:39;;;;;;;2.30;2.10;;;;;;;;;;5092087;28;20483;-71
2022/06/14 02:52:18;;;;;;;3.70;2.03;;;;;;;;;;5092438;28;20044;-72
2022/06/14 02:54:55;;;;;;;2.83;1.90;;;;;;;;;;5092295;28;20047;-71
2022/06/14 02:57:24;;;;;;;2.50;2.30;;;;;;;;;;5092013;28;20594;-72
2022/06/14 02:59:56;;;;;;;2.47;2.28;;;;;;;;;;5091975;28;20043;-72
2022/06/14 03:02:33;;;;;;;2.20;2.00;;;;;;;;;;5092199;28;20076;-72
2022/06/14 03:05:05;;;;;;;3.35;2.00;;;;;;;;;;5091961;28;20044;-72
2022/06/14 03:07:34;;;;;;;3.42;1.60;;;;;;;;;;5091869;28;20048;-72
2022/06/14 03:10:01;;;;;;;4.68;2.13;;;;;;;;;;5091827;28;20400;-71
2022/06/14 03:12:39;;;;;;;2.45;2.25;;;;;;;;;;5092182;28;20071;-72
2022/06/14 03:15:14;;;;;;;2.45;2.10;;;;;;;;;;5091980;28;20067;-72
2022/06/14 03:17:53;;;;;;;3.00;1.75;;;;;;;;;;5092118;28;20084;-72
2022/06/14 03:20:22;;;;;;;2.78;1.98;;;;;;;;;;5091699;28;20139;-72
2022/06/14 03:22:57;;;;;;;3.53;2.20;;;;;;;;;;5092069;28;20094;-72
2022/06/14 03:25:28;;;;;;;3.75;1.90;;;;;;;;;;5092036;28;20168;-71
2022/06/14 03:28:01;;;;;;;2.20;2.00;;;;;;;;;;5091739;28;20079;-71
2022/06/14 03:30:27;;;;;;;3.53;2.03;;;;;;;;;;5092015;28;20112;-71
2022/06/14 03:33:12;;;;;;;4.40;2.38;;;;;;;;;;5091977;28;20104;-72
2022/06/14 03:35:41;;;;;;;2.78;2.22;;;;;;;;;;5091472;28;20095;-71
2022/06/14 03:38:11;;;;;;;2.28;2.08;;;;;;;;;;5091807;28;20135;-71
2022/06/14 03:40:39;;;;;;;2.53;1.80;;;;;;;;;;5091727;28;20090;-72
2022/06/14 03:43:06;;;;;;;2.30;2.10;;;;;;;;;;5091626;28;20082;-71
2022/06/14 03:45:41;;;;;;;3.08;2.50;;;;;;;;;;5091676;28;20136;-71
2022/06/14 03:48:09;;;;;;;3.10;1.92;;;;;;;;;;5089993;28;20097;-71
2022/06/14 03:50:42;;;;;;;2.15;1.90;;;;;;;;;;5091550;28;20131;-71
2022/06/14 03:53:14;;;;;;;2.80;2.00;;;;;;;;;;5091881;28;20499;-71
2022/06/14 03:55:50;;;;;;;3.83;2.33;;;;;;;;;;5091345;28;20067;-71
2022/06/14 03:58:19;;;;;;;3.58;2.47;;;;;;;;;;5095013;28;20474;-71
2022/06/14 04:00:49;;;;;;;3.30;2.40;;;;;;;;;;5095747;28;20106;-71
2022/06/14 04:03:32;;;;;;;2.80;1.90;;;;;;;;;;5095523;28;20093;-71
2022/06/14 04:06:10;;;;;;;3.13;2.45;;;;;;;;;;5095406;28;20548;-71
2022/06/14 04:08:37;;;;;;;2.47;1.70;;;;;;;;;;5095504;28;20086;-71
2022/06/14 04:11:22;;;;;;;3.78;2.03;;;;;;;;;;5095228;28;20083;-71
2022/06/14 04:13:59;;;;;;;3.17;2.08;;;;;;;;;;5095534;28;20424;-71
2022/06/14 04:16:34;;;;;;;4.88;2.40;;;;;;;;;;5095445;28;20105;-71
2022/06/14 04:19:10;;;;;;;2.78;2.45;;;;;;;;;;5095481;28;20085;-71
2022/06/14 04:21:46;;;;;;;3.42;2.05;;;;;;;;;;5095143;28;20048;-71
2022/06/14 04:24:31;;;;;;;2.20;2.00;;;;;;;;;;5095066;28;20040;-72
2022/06/14 04:27:06;;;;;;;5.45;3.20;;;;;;;;;;5094727;28;20511;-71
2022/06/14 04:29:36;;;;;;;3.30;2.10;;;;;;;;;;5094905;28;20568;-71
2022/06/14 04:32:05;;;;;;;3.40;2.38;;;;;;;;;;5095355;28;20076;-71
2022/06/14 04:34:47;;;;;;;5.63;2.40;;;;;;;;;;5095144;28;20412;-71
2022/06/14 04:37:29;;;;;;;3.38;2.20;;;;;;;;;;5094741;28;20139;-71
2022/06/14 04:39:58;;;;;;;4.20;2.20;;;;;;;;;;5095280;28;20086;-71
2022/06/14 04:42:39;;;;;;;3.25;1.90;;;;;;;;;;5094878;28;20084;-71
2022/06/14 04:45:11;;;;;;;2.20;2.00;;;;;;;;;;5094652;28;20601;-71
2022/06/14 04:47:53;;;;;;;3.90;2.28;;;;;;;;;;5094421;28;20084;-70
2022/06/14 04:50:21;;;;;;;3.53;2.10;;;;;;;;;;5094769;28;20123;-71
2022/06/14 04:52:50;;;;;;;3.42;2.53;;;;;;;;;;5094291;28;20052;-70
2022/06/14 04:55:21;;;;;;;2.53;1.90;;;;;;;;;;5094456;28;20071;-71
2022/06/14 04:57:52;;;;;;;2.97;2.28;;;;;;;;;;5094330;28;20083;-71
2022/06/14 05:00:20;;;;;;;3.55;2.40;;;;;;;;;;5094572;28;20082;-71
2022/06/14 05:02:49;;;;;;;3.05;1.95;;;;;;;;;;5094099;28;20503;-71
2022/06/14 05:05:36;;;;;;;3.15;2.22;;;;;;;;;;5094201;28;20084;-71
2022/06/14 05:08:23;;;;;;;3.75;2.90;;;;;;;;;;5093653;28;20135;-72
2022/06/14 05:10:56;;;;;;;3.58;3.08;;;;;;;;;;5093122;28;20048;-72
2022/06/14 05:13:29;;;;;;;7.03;2.33;;;;;;;;;;5094358;28;20068;-72
2022/06/14 05:16:05;;;;;;;5.00;2.60;;;;;;;;;;5094188;28;20076;-72
2022/06/14 05:18:37;;;;;;;9.43;3.47;;;;;;;;;;5093964;28;20506;-72
2022/06/14 05:21:08;;;;;;;5.25;3.10;;;;;;;;;;5094290;28;20072;-72
2022/06/14 05:23:45;;;;;;;6.30;2.92;;;;;;;;;;5093906;28;20044;-71
2022/06/14 05:26:30;;;;;;;4.18;3.28;;;;;;;;;;5094210;28;20094;-71
2022/06/14 05:29:06;;;;;;;6.72;3.17;;;;;;;;;;5093829;28;20044;-71
2022/06/14 05:31:36;;;;;;;4.97;3.25;;;;;;;;;;5093809;28;20052;-71
2022/06/14 05:34:14;;;;;;;5.28;3.40;;;;;;;;;;5093772;28;20094;-72
2022/06/14 05:36:51;;;;;;;3.95;2.75;;;;;;;;;;5093812;28;20155;-71
2022/06/14 05:39:29;;;;;;;4.55;3.25;;;;;;;;;;5093856;28;20079;-71
2022/06/14 05:42:00;;;;;;;3.78;2.70;;;;;;;;;;5093859;28;20044;-71
2022/06/14 05:44:30;;;;;;;4.35;2.83;;;;;;;;;;5093657;28;20105;-71
2022/06/14 05:46:58;;;;;;;5.45;3.25;;;;;;;;;;5093440;28;20056;-71
2022/06/14 05:49:29;;;;;;;4.40;2.97;;;;;;;;;;5093070;28;20105;-71
2022/06/14 05:52:01;;;;;;;4.55;2.97;;;;;;;;;;5093322;28;20052;-71
2022/06/14 05:54:30;;;;;;;4.80;3.00;;;;;;;;;;5093254;28;20090;-71
2022/06/14 05:57:05;;;;;;;5.75;3.38;;;;;;;;;;5093174;28;20048;-69
2022/06/14 05:59:41;;;;;;;4.13;3.45;;;;;;;;;;5092911;28;20480;-69
2022/06/14 06:02:22;;;;;;;6.82;3.80;;;;;;;;;;5092609;28;20464;-68
2022/06/14 06:04:55;;;;;;;5.03;3.15;;;;;;;;;;5092936;28;20437;-69
2022/06/14 06:07:31;;;;;;;4.20;3.33;;;;;;;;;;5092489;28;20054;-68
2022/06/14 06:10:06;;;;;;;6.53;3.53;;;;;;;;;;5092840;28;20044;-69
2022/06/14 06:12:41;;;;;;;8.43;3.17;;;;;;;;;;5092695;28;20056;-69
2022/06/14 06:15:20;;;;;;;4.50;3.30;;;;;;;;;;5092824;28;20047;-67
2022/06/14 06:17:49;;;;;;;5.35;3.20;;;;;;;;;;5092154;28;20079;-68
2022/06/14 06:20:28;;;;;;;5.68;3.38;;;;;;;;;;5091266;28;20105;-68
2022/06/14 06:23:00;;;;;;;5.45;3.25;;;;;;;;;;5092798;28;20087;-69
2022/06/14 06:25:36;;;;;;;5.20;2.65;;;;;;;;;;5091574;28;20076;-72
2022/06/14 06:28:14;;;;;;;6.05;3.00;;;;;;;;;;5092815;28;20071;-72
2022/06/14 06:30:46;;;;;;;3.75;3.13;;;;;;;;;;5092658;28;20127;-72
2022/06/14 06:33:15;;;;;;;3.80;2.50;;;;;;;;;;5092794;28;20040;-72
2022/06/14 06:36:01;;;;;;;4.50;2.78;;;;;;;;;;5092776;28;20471;-72
2022/06/14 06:38:31;;;;;;;4.10;2.03;;;;;;;;;;5092459;28;20098;-71
2022/06/14 06:43:51;;;;;;;5.22;2.53;;;;;;;;;;5091921;28;20073;-69
2022/06/14 06:46:20;;;;;;;5.28;2.95;;;;;;;;;;5091083;28;20109;-72
2022/06/14 06:48:51;;;;;;;3.33;2.00;;;;;;;;;;5091536;28;20067;-72
2022/06/14 06:51:21;;;;;;;3.53;1.95;;;;;;;;;;5091941;28;20079;-72
2022/06/14 06:53:50;;;;;;;3.88;1.75;;;;;;;;;;5091688;28;20119;-71
2022/06/14 06:56:22;;;;;;;2.75;1.50;;;;;;;;;;5090876;28;20476;-73
2022/06/14 06:58:59;;;;;;;4.38;1.35;;;;;;;;;;5092189;28;20052;-72
2022/06/14 07:01:33;;;;;;;2.28;1.30;;;;;;;;;;5090917;28;20101;-70
2022/06/14 07:05:02;;;;;;;2.00;0.93;;;;;;;;;;5091519;28;20451;-72
2022/06/14 07:07:13;;;;;;;4.28;1.10;;;;;;;;;;5092064;28;20105;-72
2022/06/14 07:09:52;;;;;;;4.55;1.27;;;;;;;;;;5091563;28;20468;-73
2022/06/14 07:12:39;;;;;;;3.00;1.00;;;;;;;;;;5092416;28;20067;-72
2022/06/14 07:15:17;;;;;;;2.88;1.10;;;;;;;;;;5091838;28;20047;-73
2022/06/14 07:17:43;;;;;;;2.95;0.95;;;;;;;;;;5091488;28;20079;-73
2022/06/14 07:20:26;;;;;;;1.35;1.10;;;;;;;;;;5091769;28;20072;-73
2022/06/14 07:23:10;;;;;;;3.17;1.50;;;;;;;;;;5091607;28;20048;-73
2022/06/14 07:25:43;;;;;;;3.05;1.90;;;;;;;;;;5092098;28;20044;-73
2022/06/14 07:28:12;;;;;;;2.47;1.52;;;;;;;;;;5091399;28;20090;-72
2022/06/14 07:30:49;;;;;;;6.53;2.58;;;;;;;;;;5091461;28;20423;-72
2022/06/14 07:33:17;;;;;;;5.78;2.40;;;;;;;;;;5091149;28;20055;-72
2022/06/14 07:35:49;;;;;;;4.03;2.17;;;;;;;;;;5090637;28;20075;-72
2022/06/14 07:38:24;;;;;;;3.90;2.15;;;;;;;;;;5087119;28;20083;-71
2022/06/14 07:41:03;;;;;;;4.57;2.17;;;;;;;;;;5091308;28;20488;-74
2022/06/14 07:43:56;;;;;;;5.35;2.00;;;;;;;;;;5091331;28;20052;-73
2022/06/14 07:46:27;;;;;;;5.10;2.22;;;;;;;;;;5082455;28;20044;-73
2022/06/14 07:48:56;;;;;;;5.65;2.05;;;;;;;;;;5091446;28;20055;-73
2022/06/14 07:51:27;;;;;;;2.35;1.40;;;;;;;;;;5091646;28;20044;-73
2022/06/14 07:54:03;;;;;;;3.38;1.63;;;;;;;;;;5076743;28;20099;-73
2022/06/14 07:56:39;;;;;;;3.13;1.85;;;;;;;;;;5091299;28;20063;-73
2022/06/14 07:59:08;;;;;;;2.47;1.52;;;;;;;;;;5090371;28;20097;-73
2022/06/14 08:01:43;;;;;;;3.08;1.70;;;;;;;;;;5091314;28;20056;-73
2022/06/14 08:04:18;;;;;;;3.15;1.65;;;;;;;;;;5091405;28;20087;-73
2022/06/14 08:07:00;;;;;;;5.22;1.92;;;;;;;;;;5091565;28;20052;-73
2022/06/14 08:09:31;;;;;;;2.75;1.70;;;;;;;;;;5070654;28;20094;-73
2022/06/14 08:11:59;;;;;;;5.43;1.67;;;;;;;;;;5080333;28;20455;-72
2022/06/14 08:14:54;;;;;;;6.50;1.92;;;;;;;;;;5065125;28;20075;-72
2022/06/14 08:17:32;;;;;;;4.28;1.65;;;;;;;;;;5080430;28;20072;-72
2022/06/14 08:20:04;;;;;;;4.35;1.95;;;;;;;;;;5090614;28;20083;-72
2022/06/14 08:22:38;;;;;;;2.60;1.50;;;;;;;;;;5090996;28;20048;-72
2022/06/14 08:25:07;;;;;;;3.13;1.40;;;;;;;;;;5090839;28;20464;-72
2022/06/14 08:27:36;;;;;;;2.75;1.40;;;;;;;;;;5071080;28;20127;-72
2022/06/14 08:30:05;;;;;;;2.80;1.63;;;;;;;;;;5087461;28;20087;-72
2022/06/14 08:32:37;;;;;;;3.15;1.75;;;;;;;;;;5090625;28;20044;-71
2022/06/14 08:35:13;;;;;;;3.15;1.13;;;;;;;;;;5089589;28;20055;-71
2022/06/14 08:38:05;;;;;;;3.33;1.50;;;;;;;;;;5090274;28;20495;-71
2022/06/14 08:40:51;;;;;;;3.63;1.77;;;;;;;;;;5090232;28;20083;-71
2022/06/14 08:43:25;;;;;;;1.92;0.95;;;;;;;;;;5091685;28;20080;-71
2022/06/14 08:46:11;;;;;;;3.70;1.27;;;;;;;;;;5092488;28;20048;-71
2022/06/14 08:48:42;;;;;;;3.30;1.50;;;;;;;;;;5093808;28;20579;-71
2022/06/14 08:51:13;;;;;;;5.53;1.55;;;;;;;;;;5093938;28;20052;-72
2022/06/14 08:53:58;;;;;;;3.38;1.23;;;;;;;;;;5094206;28;20116;-72
2022/06/14 08:56:50;;;;;;;1.33;0.95;;;;;;;;;;5094017;28;20083;-72
2022/06/14 08:59:22;;;;;;;1.73;1.17;;;;;;;;;;5094201;28;20051;-73
2022/06/14 09:02:08;;;;;;;3.40;1.00;;;;;;;;;;5092741;28;20105;-72
2022/06/14 09:04:47;;;;;;;1.70;1.60;;;;;;;;;;5073440;28;20056;-72
2022/06/14 09:07:13;;;;;;;2.72;1.40;;;;;;;;;;5079002;28;20125;-72
2022/06/14 09:10:00;;;;;;;3.03;1.38;;;;;;;;;;5093420;28;20044;-72
2022/06/14 09:12:33;;;;;;;2.53;1.35;;;;;;;;;;5094010;28;20446;-72
2022/06/14 09:15:20;;;;;;;1.70;1.30;;;;;;;;;;5093655;28;20453;-71
2022/06/14 09:17:56;;;;;;;4.05;1.42;;;;;;;;;;5093844;28;20083;-72
2022/06/14 09:20:42;;;;;;;2.08;1.27;;;;;;;;;;5093974;28;20079;-72
2022/06/14 09:23:27;;;;;;;2.13;1.15;;;;;;;;;;5093436;28;20094;-71
2022/06/14 09:25:53;;;;;;;2.20;1.33;;;;;;;;;;5093728;28;20407;-71
2022/06/14 09:28:29;;;;;;;2.22;0.90;;;;;;;;;;5093477;28;20040;-71
2022/06/14 09:31:09;;;;;;;2.20;1.30;;;;;;;;;;5093689;28;20385;-72
2022/06/14 09:33:43;;;;;;;3.97;1.30;;;;;;;;;;5093733;28;20048;-72
2022/06/14 09:36:24;;;;;;;2.60;1.50;;;;;;;;;;5093685;28;20334;-71
2022/06/14 09:38:56;;;;;;;1.52;1.20;;;;;;;;;;5093785;28;20075;-71
2022/06/14 09:41:23;;;;;;;2.63;1.40;;;;;;;;;;5092767;28;20574;-72
2022/06/14 09:44:11;;;;;;;2.22;1.33;;;;;;;;;;5091206;28;20052;-71
2022/06/14 09:46:37;;;;;;;1.40;1.30;;;;;;;;;;5092904;28;20086;-71
2022/06/14 09:49:07;;;;;;;2.10;1.33;;;;;;;;;;5092786;28;20056;-72
2022/06/14 09:52:00;;;;;;;1.95;1.35;;;;;;;;;;5092711;28;20499;-71
2022/06/14 09:54:45;;;;;;;1.80;1.30;;;;;;;;;;5090840;28;20419;-72
2022/06/14 09:57:30;;;;;;;3.45;1.50;;;;;;;;;;5091370;28;20094;-72
2022/06/14 09:59:57;;;;;;;2.20;1.13;;;;;;;;;;5093123;28;20051;-72
2022/06/14 10:02:29;;;;;;;1.70;0.95;;;;;;;;;;5085237;28;20076;-72
2022/06/14 10:05:08;;;;;;;2.90;1.42;;;;;;;;;;5081458;28;20056;-72
2022/06/14 10:07:53;;;;;;;1.88;1.40;;;;;;;;;;5092648;28;20107;-72
2022/06/14 10:10:29;;;;;;;3.58;1.35;;;;;;;;;;5092689;28;20544;-72
2022/06/14 10:13:11;;;;;;;2.13;1.25;;;;;;;;;;5092680;28;20085;-72
2022/06/14 10:15:56;;;;;;;3.60;1.33;;;;;;;;;;5091597;28;20555;-71
2022/06/14 10:18:32;;;;;;;3.42;1.30;;;;;;;;;;5092703;28;20126;-72
2022/06/14 10:20:59;;;;;;;1.50;1.10;;;;;;;;;;5092584;28;20036;-72
2022/06/14 10:23:25;;;;;;;;;;;;;;;;;;5091940;28;20494;-72
2022/06/14 10:29:04;;;;;;;2.00;1.20;;;;;;;;;;5091574;28;20541;-72
2022/06/14 10:31:37;;;;;;;6.37;1.53;;;;;;;;;;5092289;28;20072;-72
2022/06/14 10:34:12;;;;;;;1.98;1.10;;;;;;;;;;5092196;28;20284;-72
2022/06/14 10:36:45;;;;;;;2.77;1.47;;;;;;;;;;5092189;28;20113;-71
2022/06/14 10:39:21;;;;;;;1.90;1.55;;;;;;;;;;5092037;28;20140;-71
2022/06/14 10:41:56;;;;;;;3.05;1.38;;;;;;;;;;5091968;28;20047;-72
2022/06/14 10:44:26;;;;;;;2.17;1.10;;;;;;;;;;5089819;28;20075;-71
2022/06/14 10:46:56;;;;;;;1.38;1.20;;;;;;;;;;5091973;28;20284;-72
2022/06/14 10:49:46;;;;;;;1.77;1.10;;;;;;;;;;5091358;28;20087;-72
2022/06/14 10:52:36;;;;;;;2.78;1.40;;;;;;;;;;5091195;28;20131;-71
2022/06/14 10:55:03;;;;;;;1.83;1.50;;;;;;;;;;5091923;28;20404;-71
2022/06/14 10:57:50;;;;;;;3.10;1.40;;;;;;;;;;5091538;28;20547;-71
2022/06/14 11:00:26;;;;;;;3.15;1.30;;;;;;;;;;5090284;28;20079;-72
2022/06/14 11:03:01;;;;;;;1.90;1.27;;;;;;;;;;5081680;28;20048;-71
2022/06/14 11:05:50;;;;;;;1.08;0.95;;;;;;;;;;5079607;28;20072;-71
2022/06/14 11:08:26;;;;;;;2.35;1.17;;;;;;;;;;5090867;28;20540;-72
2022/06/14 11:10:53;;;;;;;2.53;1.30;;;;;;;;;;5091265;28;20393;-72
2022/06/14 11:13:29;;;;;;;2.17;1.10;;;;;;;;;;5092135;28;20093;-72
2022/06/14 11:16:04;;;;;;;1.83;1.25;;;;;;;;;;5091500;28;20466;-72
2022/06/14 11:18:33;;;;;;;2.78;1.30;;;;;;;;;;5091562;28;20079;-72
2022/06/14 11:21:00;;;;;;;2.13;1.60;;;;;;;;;;5091647;28;20121;-72
2022/06/14 11:23:26;;;;;;;;;;;;;;;;;;5091985;28;20075;-72
2022/06/14 11:25:56;;;;;;;1.30;1.20;;;;;;;;;;5089481;28;19966;-74
2022/06/14 11:28:28;;;;;;;1.83;1.23;;;;;;;;;;5084588;28;20102;-74
2022/06/14 11:30:55;;;;;;;1.33;0.98;;;;;;;;;;5089177;28;20040;-75
2022/06/14 11:33:33;;;;;;;3.72;3.15;;;;;;;;;;5091498;28;20479;-74
2022/06/14 11:36:18;;;;;;;2.05;1.40;;;;;;;;;;5090147;28;20075;-74
2022/06/14 11:38:47;;;;;;;2.28;1.27;;;;;;;;;;5090903;28;20075;-74
2022/06/14 11:41:14;;;;;;;3.47;1.17;;;;;;;;;;5085900;28;20084;-74
2022/06/14 11:43:59;;;;;;;3.92;1.35;;;;;;;;;;5082881;28;20130;-74
2022/06/14 11:46:26;;;;;;;3.63;2.00;;;;;;;;;;5091833;28;20052;-75
2022/06/14 11:48:52;;;;;;;;;;;;;;;;;;5091605;28;20345;-74
2022/06/14 11:51:19;;;;;;;2.17;1.20;;;;;;;;;;5091760;28;19957;-75
2022/06/14 11:53:45;;;;;;;1.63;1.20;;;;;;;;;;5083300;28;20454;-75
2022/06/14 11:56:17;;;;;;;1.35;1.08;;;;;;;;;;5091646;28;20098;-75
2022/06/14 11:58:56;;;;;;;5.18;2.75;;;;;;;;;;5091371;28;20381;-75
2022/06/14 12:01:30;;;;;;;6.85;4.95;;;;;;;;;;5091432;28;20549;-74
2022/06/14 12:04:00;;;;;;;2.90;1.42;;;;;;;;;;5091374;28;20048;-75
2022/06/14 12:06:27;;;;;;;2.45;0.95;;;;;;;;;;5091280;28;20070;-73
2022/06/14 12:08:56;;;;;;;5.00;3.72;;;;;;;;;;5091263;28;20048;-74
2022/06/14 12:11:39;;;;;;;3.75;2.97;;;;;;;;;;5091309;28;20560;-74
2022/06/14 12:14:21;;;;;;;2.78;1.20;;;;;;;;;;5089715;28;20079;-74
2022/06/14 12:16:53;;;;;;;3.42;1.20;;;;;;;;;;5074561;28;20063;-73
2022/06/14 12:19:22;;;;;;;2.25;1.23;;;;;;;;;;5094155;28;20579;-74
2022/06/14 12:21:57;;;;;;;1.40;1.15;;;;;;;;;;5080316;28;20074;-74
2022/06/14 12:26:34;;;;;;;1.90;0.93;;;;;;;;;;5088665;28;20091;-74
2022/06/14 12:27:13;;;;;;;2.30;1.10;;;;;;;;;;5094687;28;20052;-75
2022/06/14 12:29:41;;;;;;;2.67;0.95;;;;;;;;;;5093565;28;20040;-74
2022/06/14 12:32:20;;;;;;;1.77;1.00;;;;;;;;;;5090674;28;20488;-74
2022/06/14 12:34:46;;;;;;;2.15;1.27;;;;;;;;;;5061997;28;20548;-75
2022/06/14 12:37:13;;;;;;;;;;;;;;;;;;5091890;28;20075;-75
2022/06/14 12:39:44;;;;;;;2.08;1.23;;;;;;;;;;5078624;28;19971;-75
2022/06/14 12:42:13;;;;;;;2.28;1.35;;;;;;;;;;5094061;28;20082;-75
2022/06/14 12:44:42;;;;;;;3.25;1.02;;;;;;;;;;5092367;28;20088;-75
2022/06/14 12:47:16;;;;;;;2.92;1.10;;;;;;;;;;5093555;28;20519;-74
2022/06/14 12:49:45;;;;;;;2.17;1.02;;;;;;;;;;5082711;28;20052;-74
2022/06/14 12:52:15;;;;;;;1.27;0.98;;;;;;;;;;5089998;28;20090;-74
2022/06/14 12:54:49;;;;;;;;;;;;;;;;;;5092894;28;20048;-76
2022/06/14 12:57:25;;;;;;;3.63;1.20;;;;;;;;;;5094154;28;19965;-73
2022/06/14 13:00:14;;;;;;;0.85;0.80;;;;;;;;;;5092129;28;20084;-74
2022/06/14 13:03:00;;;;;;;1.77;1.20;;;;;;;;;;5093504;28;20083;-73
2022/06/14 13:05:29;;;;;;;2.35;0.93;;;;;;;;;;5093170;28;20530;-73
2022/06/14 13:08:04;;;;;;;0.70;0.70;;;;;;;;;;5080525;28;20089;-72
2022/06/14 13:10:44;;;;;;;1.67;0.90;;;;;;;;;;5079448;28;20084;-72
2022/06/14 13:13:19;;;;;;;2.97;1.02;;;;;;;;;;5081752;28;20044;-72
2022/06/14 13:15:49;;;;;;;1.00;0.83;;;;;;;;;;5093209;28;20123;-73
2022/06/14 13:18:34;;;;;;;1.55;0.95;;;;;;;;;;5093595;28;20654;-72
2022/06/14 13:21:19;;;;;;;3.88;1.20;;;;;;;;;;5094135;28;20105;-72
2022/06/14 13:24:01;;;;;;;1.73;0.97;;;;;;;;;;5093326;28;20056;-72
2022/06/14 13:26:46;;;;;;;1.45;1.02;;;;;;;;;;5093308;28;20519;-72
2022/06/14 13:29:22;;;;;;;2.30;1.20;;;;;;;;;;5092289;28;20052;-72
2022/06/14 13:32:01;;;;;;;3.70;0.95;;;;;;;;;;5091312;28;20440;-71
2022/06/14 13:34:33;;;;;;;2.13;1.00;;;;;;;;;;5092377;28;20072;-72
2022/06/14 13:37:15;;;;;;;2.95;1.05;;;;;;;;;;5093437;28;20040;-71
2022/06/14 13:39:49;;;;;;;1.67;1.10;;;;;;;;;;5093434;28;20106;-72
2022/06/14 13:42:29;;;;;;;2.78;0.98;;;;;;;;;;5092898;28;20048;-71
2022/06/14 13:44:56;;;;;;;1.52;0.88;;;;;;;;;;5092317;28;20048;-72
2022/06/14 13:47:28;;;;;;;2.10;1.08;;;;;;;;;;5093017;28;20084;-72
2022/06/14 13:50:00;;;;;;;2.53;1.10;;;;;;;;;;5092694;28;20566;-72
2022/06/14 13:52:47;;;;;;;2.25;1.00;;;;;;;;;;5089773;28;20052;-72
2022/06/14 13:55:13;;;;;;;1.67;1.20;;;;;;;;;;5099552;28;20078;-72
2022/06/14 13:57:58;;;;;;;2.67;1.15;;;;;;;;;;5092679;28;20040;-72
2022/06/14 14:00:35;;;;;;;1.40;1.10;;;;;;;;;;5092613;28;20052;-72
2022/06/14 14:03:14;;;;;;;1.83;1.00;;;;;;;;;;5093014;28;20044;-71
2022/06/14 14:05:43;;;;;;;1.75;1.20;;;;;;;;;;5084410;28;20060;-74
2022/06/14 14:08:23;;;;;;;1.80;1.20;;;;;;;;;;5069932;28;20076;-75
2022/06/14 14:11:10;;;;;;;1.83;1.13;;;;;;;;;;5085820;28;20079;-74
2022/06/14 14:13:40;;;;;;;1.50;0.90;;;;;;;;;;5089994;28;20048;-75
2022/06/14 14:16:15;;;;;;;1.83;1.35;;;;;;;;;;5092090;28;20074;-75
2022/06/14 14:18:53;;;;;;;1.30;1.05;;;;;;;;;;5091875;28;20044;-75
2022/06/14 14:21:28;;;;;;;2.10;1.10;;;;;;;;;;5089466;28;20094;-73
2022/06/14 14:24:13;;;;;;;2.50;0.97;;;;;;;;;;5092367;28;20059;-74
2022/06/14 14:27:09;;;;;;;1.92;0.95;;;;;;;;;;5092647;28;20091;-73
2022/06/14 14:29:40;;;;;;;0.98;0.82;;;;;;;;;;5089940;28;20049;-74
2022/06/14 14:32:11;;;;;;;2.67;1.10;;;;;;;;;;5092761;28;20517;-73
2022/06/14 14:34:39;;;;;;;3.80;0.90;;;;;;;;;;5079774;28;20507;-73
2022/06/14 14:37:18;;;;;;;1.45;0.80;;;;;;;;;;5092744;28;20083;-72
2022/06/14 14:39:51;;;;;;;2.55;1.08;;;;;;;;;;5092018;28;20106;-72
2022/06/14 14:42:40;;;;;;;1.33;1.00;;;;;;;;;;5090953;28;20500;-73
2022/06/14 14:45:25;;;;;;;3.40;1.13;;;;;;;;;;5092123;28;20083;-73
2022/06/14 14:47:55;;;;;;;2.53;1.00;;;;;;;;;;5088681;28;20134;-74
2022/06/14 14:50:32;;;;;;;1.23;0.98;;;;;;;;;;5091680;28;20086;-75
2022/06/14 14:53:05;;;;;;;2.67;1.88;;;;;;;;;;5090333;28;20048;-73
2022/06/14 14:55:32;;;;;;;2.42;1.60;;;;;;;;;;5091937;28;20649;-73
2022/06/14 14:58:03;;;;;;;1.23;1.13;;;;;;;;;;5091825;28;20086;-74
2022/06/14 15:06:19;;;;;;;1.45;0.93;;;;;;;;;;5091779;28;20056;-74
2022/06/14 15:08:56;;;;;;;1.60;1.30;;;;;;;;;;5091384;28;20052;-74
2022/06/14 15:11:24;;;;;;;1.33;1.10;;;;;;;;;;5090853;28;20044;-76
2022/06/14 15:13:51;;;;;;;2.38;1.13;;;;;;;;;;5091072;28;20044;-74
2022/06/14 15:16:18;;;;;;;0.95;0.93;;;;;;;;;;5091423;28;20048;-75
2022/06/14 15:21:33;;;;;;;1.70;1.60;;;;;;;;;;5091606;28;20052;-73
2022/06/14 15:24:01;;;;;;;1.33;1.20;;;;;;;;;;5091589;28;20488;-86
2022/06/14 15:26:29;;;;;;;2.47;1.55;;;;;;;;;;5091458;28;20056;-85
2022/06/14 15:28:57;;;;;;;1.63;1.20;;;;;;;;;;5091122;28;20044;-81
2022/06/14 15:31:24;;;;;;;1.33;1.23;;;;;;;;;;5089719;28;20076;-88
2022/06/14 15:33:51;;;;;;;1.65;1.15;;;;;;;;;;5090946;28;20058;-87
2022/06/14 15:36:30;;;;;;;1.55;0.90;;;;;;;;;;5091051;28;20123;-83
2022/06/14 15:39:16;;;;;;;2.17;1.00;;;;;;;;;;5090986;28;20080;-86
2022/06/14 15:41:43;;;;;;;2.92;1.15;;;;;;;;;;5091184;28;20052;-86
2022/06/14 15:44:12;;;;;;;1.33;1.10;;;;;;;;;;5090340;28;20048;-84
2022/06/14 15:46:53;;;;;;;1.65;0.75;;;;;;;;;;5088806;28;20052;-83